Terminal Aerodrome Forecast
Issued by NWS

Home | Current Version | Previous Version | Text Only | Print | Product List | Glossary On
Versions: 1 2 3 4 5 6 7 8 9 10 11 12 13
000
FTUS42 KILM 290520
TAFCRE
TAF
KCRE 290520Z 2906/3006 06004KT P6SM SCT020 SCT070 SCT150
      TEMPO 2910/2914 BKN012
     FM291400 10009KT P6SM SCT020 SCT070 SCT140=

USA.gov is the U.S. government's official web portal to all federal, state and local government web resources and services.